createdAt,value
2024-03-12T00:02:11.480Z,11.27
2024-03-12T00:04:42.174Z,11.26
2024-03-12T00:07:11.286Z,11.26
2024-03-12T00:09:39.880Z,11.25
2024-03-12T00:12:08.625Z,11.26
2024-03-12T00:14:36.690Z,11.23
2024-03-12T00:17:05.193Z,11.19
2024-03-12T00:19:34.955Z,11.20
2024-03-12T00:22:03.393Z,11.19
2024-03-12T00:24:31.669Z,11.17
2024-03-12T00:26:59.943Z,11.14
2024-03-12T00:29:28.014Z,11.13
2024-03-12T00:31:56.802Z,11.13
2024-03-12T00:34:26.820Z,11.13
2024-03-12T00:36:54.984Z,11.10
2024-03-12T00:39:23.390Z,11.10
2024-03-12T00:41:51.612Z,11.10
2024-03-12T00:44:21.168Z,11.10
2024-03-12T00:46:50.285Z,11.10
2024-03-12T00:49:18.370Z,11.07
2024-03-12T00:51:46.678Z,11.06
2024-03-12T00:54:15.090Z,11.05
2024-03-12T00:56:43.415Z,11.04
2024-03-12T00:59:11.558Z,11.03
2024-03-12T01:01:40.114Z,11.01
2024-03-12T01:04:08.412Z,10.98
2024-03-12T01:06:36.711Z,10.96
2024-03-12T01:09:07.620Z,10.94
2024-03-12T01:11:35.774Z,10.92
2024-03-12T01:14:06.502Z,10.91
2024-03-12T01:16:34.834Z,10.92
2024-03-12T01:19:03.136Z,10.93
2024-03-12T01:21:33.640Z,10.93
2024-03-12T01:24:05.900Z,10.93
2024-03-12T01:26:35.833Z,10.92
2024-03-12T01:29:04.722Z,10.91
2024-03-12T01:31:33.052Z,10.91
2024-03-12T01:34:01.388Z,10.91
2024-03-12T01:36:36.041Z,10.91
2024-03-12T01:39:09.462Z,10.91
2024-03-12T01:41:43.199Z,10.90
2024-03-12T01:44:12.564Z,10.89
2024-03-12T01:46:41.190Z,10.88
2024-03-12T01:49:10.537Z,10.88
2024-03-12T01:51:39.281Z,10.87
2024-03-12T01:54:07.612Z,10.87
2024-03-12T01:56:36.562Z,10.86
2024-03-12T01:59:04.883Z,10.86
2024-03-12T02:01:33.229Z,10.85
2024-03-12T02:04:03.570Z,10.83
2024-03-12T02:06:31.889Z,10.83
2024-03-12T02:09:04.619Z,10.82
2024-03-12T02:11:32.979Z,10.82
2024-03-12T02:14:01.153Z,10.81
2024-03-12T02:16:29.583Z,10.79
2024-03-12T02:18:57.848Z,10.78
2024-03-12T02:21:26.161Z,10.78
2024-03-12T02:23:54.640Z,10.79
2024-03-12T02:26:22.755Z,10.79
2024-03-12T02:28:51.383Z,10.80
2024-03-12T02:31:21.067Z,10.81
2024-03-12T02:33:49.492Z,10.82
2024-03-12T02:36:18.586Z,10.82
2024-03-12T02:38:47.356Z,10.82
2024-03-12T02:41:16.563Z,10.82
2024-03-12T02:43:44.624Z,10.83
2024-03-12T02:46:12.982Z,10.83
2024-03-12T02:48:43.332Z,10.84
2024-03-12T02:51:11.632Z,10.83
2024-03-12T02:53:39.897Z,10.84
2024-03-12T02:56:08.148Z,10.85
2024-03-12T02:58:37.198Z,10.85
2024-03-12T03:01:06.337Z,10.87
2024-03-12T03:03:35.458Z,10.88
2024-03-12T03:06:04.152Z,10.88
2024-03-12T03:08:32.698Z,10.88
2024-03-12T03:11:01.173Z,10.88
2024-03-12T03:13:29.549Z,10.88
2024-03-12T03:15:58.107Z,10.87
2024-03-12T03:18:28.818Z,10.85
2024-03-12T03:20:57.700Z,10.84
2024-03-12T03:23:25.988Z,10.83
2024-03-12T03:25:54.160Z,10.84
2024-03-12T03:28:22.347Z,10.84
2024-03-12T03:30:51.315Z,10.83
2024-03-12T03:33:19.408Z,10.82
2024-03-12T03:35:47.510Z,10.81
2024-03-12T03:38:15.622Z,10.80
2024-03-12T03:40:43.786Z,10.79
2024-03-12T03:43:13.752Z,10.77
2024-03-12T03:45:42.718Z,10.76
2024-03-12T03:48:10.942Z,10.76
2024-03-12T03:50:39.177Z,10.76
2024-03-12T03:53:09.318Z,10.74
2024-03-12T03:55:40.250Z,10.74
2024-03-12T03:58:08.793Z,10.74
2024-03-12T04:00:38.190Z,10.74
2024-03-12T04:03:10.597Z,10.75
2024-03-12T04:05:38.861Z,10.76
2024-03-12T04:08:07.732Z,10.77
2024-03-12T04:10:35.893Z,10.75
2024-03-12T04:13:05.720Z,10.75
2024-03-12T04:15:35.231Z,10.74
2024-03-12T04:18:03.896Z,10.71
2024-03-12T04:20:32.261Z,10.68
2024-03-12T04:23:02.562Z,10.65
2024-03-12T04:25:30.798Z,10.63
2024-03-12T04:27:59.389Z,10.60
2024-03-12T04:30:27.753Z,10.54
2024-03-12T04:32:56.064Z,10.48
2024-03-12T04:35:24.170Z,10.42
2024-03-12T04:37:52.323Z,10.40
2024-03-12T04:40:22.637Z,10.38
2024-03-12T04:42:51.111Z,10.36
2024-03-12T04:45:19.667Z,10.35
2024-03-12T04:47:50.166Z,10.32
2024-03-12T04:50:20.422Z,10.29
2024-03-12T04:52:48.827Z,10.27
2024-03-12T04:55:17.541Z,10.23
2024-03-12T04:57:45.773Z,10.19
2024-03-12T05:00:21.062Z,10.15
2024-03-12T05:02:52.276Z,10.12
2024-03-12T05:05:22.598Z,10.09
2024-03-12T05:07:52.097Z,10.07
2024-03-12T05:10:23.943Z,10.05
2024-03-12T05:12:52.877Z,10.03
2024-03-12T05:15:22.517Z,10.01
2024-03-12T05:17:50.835Z,9.94
2024-03-12T05:20:23.923Z,9.91
2024-03-12T05:22:52.326Z,9.87
2024-03-12T05:25:24.813Z,9.87
2024-03-12T05:27:53.239Z,9.85
2024-03-12T05:30:23.296Z,9.86
2024-03-12T05:32:54.926Z,9.86
2024-03-12T05:35:24.401Z,9.84
2024-03-12T05:38:23.760Z,9.85
2024-03-12T05:40:58.880Z,9.88
2024-03-12T05:43:48.165Z,9.93
2024-03-12T05:46:36.696Z,9.99
2024-03-12T05:49:05.374Z,10.07
2024-03-12T05:51:36.299Z,10.14
2024-03-12T05:54:06.415Z,10.18
2024-03-12T05:56:38.973Z,10.24
2024-03-12T05:59:08.620Z,10.29
2024-03-12T06:01:37.274Z,10.34
2024-03-12T06:04:06.291Z,10.38
2024-03-12T06:06:34.952Z,10.43
2024-03-12T06:09:03.187Z,10.47
2024-03-12T06:11:32.716Z,10.52
2024-03-12T06:14:04.241Z,10.57
2024-03-12T06:16:33.870Z,10.59
2024-03-12T06:19:02.233Z,10.60
2024-03-12T06:21:31.117Z,10.60
2024-03-12T06:23:59.747Z,10.60
2024-03-12T06:26:29.380Z,10.60
2024-03-12T06:28:58.274Z,10.60
2024-03-12T06:31:26.461Z,10.60
2024-03-12T06:33:55.676Z,10.60
2024-03-12T06:36:23.813Z,10.60
2024-03-12T06:38:53.456Z,10.60
2024-03-12T06:41:22.110Z,10.59
2024-03-12T06:43:50.413Z,10.58
2024-03-12T06:46:20.933Z,10.57
2024-03-12T06:48:49.881Z,10.55
2024-03-12T06:51:18.940Z,10.53
2024-03-12T06:53:46.994Z,10.52
2024-03-12T06:56:18.353Z,10.52
2024-03-12T06:58:47.232Z,10.54
2024-03-12T07:01:16.636Z,10.54
2024-03-12T07:03:47.149Z,10.53
2024-03-12T07:06:16.637Z,10.52
2024-03-12T07:08:45.872Z,10.50
2024-03-12T07:11:15.997Z,10.50
2024-03-12T07:13:49.923Z,10.51
2024-03-12T07:16:18.199Z,10.52
2024-03-12T07:18:47.942Z,10.53
2024-03-12T07:21:17.414Z,10.54
2024-03-12T07:23:45.669Z,10.55
2024-03-12T07:26:13.857Z,10.53
2024-03-12T07:28:44.121Z,10.56
2024-03-12T07:31:12.499Z,10.58
2024-03-12T07:33:40.890Z,10.61
2024-03-12T07:36:09.403Z,10.65
2024-03-12T07:38:39.705Z,10.73
2024-03-12T07:41:10.411Z,10.80
2024-03-12T07:43:39.033Z,10.89
2024-03-12T07:46:08.681Z,10.97
2024-03-12T07:48:38.320Z,11.03
2024-03-12T07:51:10.434Z,11.08
2024-03-12T07:53:38.693Z,11.11
2024-03-12T07:56:08.098Z,11.13
2024-03-12T07:58:36.906Z,11.20
2024-03-12T08:01:05.403Z,11.25
2024-03-12T08:03:33.659Z,11.32
2024-03-12T08:06:10.356Z,11.36
2024-03-12T08:08:38.534Z,11.40
2024-03-12T08:11:06.729Z,11.45
2024-03-12T08:13:36.231Z,11.47
2024-03-12T08:16:04.720Z,11.50
2024-03-12T08:18:33.208Z,11.53
2024-03-12T08:21:03.558Z,11.56
2024-03-12T08:23:31.689Z,11.51
2024-03-12T08:26:01.064Z,11.42
2024-03-12T08:28:32.606Z,11.40
2024-03-12T08:31:07.968Z,11.38
2024-03-12T08:33:43.021Z,11.38
2024-03-12T08:36:12.280Z,11.31
2024-03-12T08:38:40.956Z,11.29
2024-03-12T08:41:11.819Z,11.26
2024-03-12T08:43:39.980Z,11.25
2024-03-12T08:46:08.712Z,11.27
2024-03-12T08:48:37.205Z,11.26
2024-03-12T08:51:05.730Z,11.20
2024-03-12T08:53:37.005Z,11.17
2024-03-12T08:56:05.860Z,11.16
2024-03-12T08:58:34.432Z,11.18
2024-03-12T09:01:03.433Z,11.21
2024-03-12T09:03:31.937Z,11.24
2024-03-12T09:06:01.237Z,11.27
2024-03-12T09:08:30.936Z,11.30
2024-03-12T09:10:59.213Z,11.31
2024-03-12T09:13:27.510Z,11.32
2024-03-12T09:15:56.834Z,11.33
2024-03-12T09:18:27.554Z,11.31
2024-03-12T09:20:56.858Z,11.30
2024-03-12T09:23:26.724Z,11.32
2024-03-12T09:25:56.269Z,11.36
2024-03-12T09:28:24.397Z,11.37
2024-03-12T09:30:52.776Z,11.40
2024-03-12T09:33:21.330Z,11.44
2024-03-12T09:35:50.377Z,11.47
2024-03-12T09:38:18.888Z,11.47
2024-03-12T09:40:52.049Z,11.44
2024-03-12T09:43:23.826Z,11.42
2024-03-12T09:45:52.686Z,11.38
2024-03-12T09:48:23.235Z,11.31
2024-03-12T09:50:51.906Z,11.25
2024-03-12T09:53:22.374Z,11.25
2024-03-12T09:55:51.454Z,11.23
2024-03-12T09:58:19.709Z,11.21
2024-03-12T10:00:48.541Z,11.24
2024-03-12T10:03:20.976Z,11.26
2024-03-12T10:05:49.223Z,11.27
2024-03-12T10:08:19.184Z,11.27
2024-03-12T10:10:49.261Z,11.22
2024-03-12T10:13:19.011Z,11.19
2024-03-12T10:15:55.440Z,11.17
2024-03-12T10:18:44.989Z,11.14
2024-03-12T10:21:13.307Z,11.10
2024-03-12T10:23:42.381Z,11.10
2024-03-12T10:26:17.793Z,11.10
2024-03-12T10:28:47.175Z,11.10
2024-03-12T10:31:16.226Z,11.07
2024-03-12T10:33:50.233Z,11.03
2024-03-12T10:36:35.385Z,10.99
2024-03-12T10:39:13.506Z,10.94
2024-03-12T10:41:45.343Z,10.91
2024-03-12T10:44:13.527Z,10.90
2024-03-12T10:46:44.782Z,10.90
2024-03-12T10:49:16.819Z,10.94
2024-03-12T10:51:46.278Z,10.97
2024-03-12T10:54:17.750Z,11.04
2024-03-12T10:56:47.677Z,11.06
2024-03-12T10:59:17.647Z,11.09
2024-03-12T11:01:49.294Z,11.14
2024-03-12T11:04:18.800Z,11.14
2024-03-12T11:06:49.928Z,11.19
2024-03-12T11:09:23.312Z,11.16
2024-03-12T11:11:51.914Z,11.14
2024-03-12T11:14:21.918Z,11.09
2024-03-12T11:16:50.590Z,11.09
2024-03-12T11:19:26.196Z,11.17
2024-03-12T11:22:02.615Z,11.21
2024-03-12T11:24:31.664Z,11.29
2024-03-12T11:27:01.774Z,11.38
2024-03-12T11:30:19.876Z,11.44
2024-03-12T11:32:51.408Z,11.53
2024-03-12T11:35:19.692Z,11.67
2024-03-12T11:38:11.775Z,11.79
2024-03-12T11:40:52.780Z,11.94
2024-03-12T11:43:54.336Z,12.03
2024-03-12T11:46:49.432Z,12.06
2024-03-12T11:49:33.210Z,12.09
2024-03-12T11:52:02.603Z,12.10
2024-03-12T11:54:40.841Z,12.12
2024-03-12T11:57:22.875Z,12.11
2024-03-12T11:59:52.307Z,12.10
2024-03-12T12:02:21.974Z,12.07
2024-03-12T12:04:57.516Z,12.06
2024-03-12T12:07:29.266Z,12.05
2024-03-12T12:09:57.601Z,12.03
2024-03-12T12:12:28.043Z,11.99
2024-03-12T12:14:56.156Z,11.93
2024-03-12T12:17:25.583Z,11.93
2024-03-12T12:20:17.955Z,11.93
2024-03-12T12:22:47.768Z,11.91
2024-03-12T12:25:20.717Z,11.90
2024-03-12T12:27:49.175Z,11.90
2024-03-12T12:30:22.136Z,11.90
2024-03-12T12:32:52.781Z,11.89
2024-03-12T12:35:22.325Z,11.90
2024-03-12T12:37:52.146Z,11.90
2024-03-12T12:40:22.987Z,11.90
2024-03-12T12:42:52.050Z,11.90
2024-03-12T12:45:20.519Z,11.89
2024-03-12T12:47:50.524Z,11.87
2024-03-12T12:50:31.132Z,11.86
2024-03-12T12:53:02.226Z,11.85
2024-03-12T12:55:33.798Z,11.84
2024-03-12T12:58:04.404Z,11.83
2024-03-12T13:00:37.770Z,11.82
2024-03-12T13:03:17.750Z,11.80
2024-03-12T13:05:47.786Z,11.78
2024-03-12T13:08:21.378Z,11.77
2024-03-12T13:11:01.166Z,11.75
2024-03-12T13:13:29.678Z,11.73
2024-03-12T13:16:10.373Z,11.72
2024-03-12T13:18:40.623Z,11.71
2024-03-12T13:21:09.647Z,11.69
2024-03-12T13:23:38.062Z,11.67
2024-03-12T13:26:07.522Z,11.66
2024-03-12T13:28:36.657Z,11.66
2024-03-12T13:31:06.129Z,11.67
2024-03-12T13:33:34.793Z,11.67
2024-03-12T13:36:03.081Z,11.68
2024-03-12T13:38:31.295Z,11.70
2024-03-12T13:40:59.463Z,11.71
2024-03-12T13:43:28.472Z,11.71
2024-03-12T13:45:57.721Z,11.72
2024-03-12T13:48:28.302Z,11.76
2024-03-12T13:51:01.496Z,11.81
2024-03-12T13:53:29.816Z,11.85
2024-03-12T13:55:59.468Z,11.88
2024-03-12T13:58:28.201Z,11.91
2024-03-12T14:00:58.818Z,11.93
2024-03-12T14:03:32.135Z,11.96
2024-03-12T14:06:03.522Z,12.00
2024-03-12T14:08:31.877Z,12.03
2024-03-12T14:11:00.063Z,12.05
2024-03-12T14:13:28.855Z,12.04
2024-03-12T14:15:57.242Z,12.02
2024-03-12T14:18:27.897Z,12.03
2024-03-12T14:20:56.641Z,12.04
2024-03-12T14:23:24.978Z,12.02
2024-03-12T14:25:54.438Z,12.01
2024-03-12T14:28:23.164Z,11.96
2024-03-12T14:30:51.564Z,11.91
2024-03-12T14:33:19.942Z,11.87
2024-03-12T14:35:48.357Z,11.82
2024-03-12T14:38:16.743Z,11.78
2024-03-12T14:40:45.127Z,11.75
2024-03-12T14:43:13.499Z,11.72
2024-03-12T14:45:43.135Z,11.70
2024-03-12T14:48:11.989Z,11.67
2024-03-12T14:50:40.391Z,11.65
2024-03-12T14:53:09.209Z,11.63
2024-03-12T14:55:38.098Z,11.60
2024-03-12T14:58:08.919Z,11.57
2024-03-12T15:00:40.655Z,11.55
2024-03-12T15:03:09.235Z,11.54
2024-03-12T15:05:37.728Z,11.52
2024-03-12T15:08:06.337Z,11.50
2024-03-12T15:10:34.504Z,11.48
2024-03-12T15:13:02.896Z,11.46
2024-03-12T15:15:31.624Z,11.43
2024-03-12T15:18:01.711Z,11.41
2024-03-12T15:20:31.248Z,11.38
2024-03-12T15:23:00.246Z,11.36
2024-03-12T15:25:29.320Z,11.33
2024-03-12T15:27:58.557Z,11.32
2024-03-12T15:30:27.184Z,11.30
2024-03-12T15:32:55.902Z,11.28
2024-03-12T15:35:25.427Z,11.26
2024-03-12T15:37:55.372Z,11.25
2024-03-12T15:40:24.157Z,11.25
2024-03-12T15:42:52.855Z,11.24
2024-03-12T15:45:22.119Z,11.24
2024-03-12T15:47:50.470Z,11.24
2024-03-12T15:50:18.774Z,11.25
2024-03-12T15:52:47.643Z,11.26
2024-03-12T15:55:16.166Z,11.26
2024-03-12T15:57:47.030Z,11.28
2024-03-12T16:00:16.094Z,11.31
2024-03-12T16:02:45.255Z,11.32
2024-03-12T16:05:13.856Z,11.32
2024-03-12T16:07:42.046Z,11.33
2024-03-12T16:10:11.346Z,11.34
2024-03-12T16:12:42.947Z,11.36
2024-03-12T16:15:15.123Z,11.38
2024-03-12T16:17:44.026Z,11.41
2024-03-12T16:20:16.576Z,11.43
2024-03-12T16:22:44.908Z,11.44
2024-03-12T16:25:16.734Z,11.44
2024-03-12T16:27:45.209Z,11.46
2024-03-12T16:30:15.725Z,11.46
2024-03-12T16:32:45.361Z,11.47
2024-03-12T16:35:16.595Z,11.47
2024-03-12T16:37:45.429Z,11.48
2024-03-12T16:40:14.353Z,11.47
2024-03-12T16:42:44.493Z,11.46
2024-03-12T16:45:13.736Z,11.43
2024-03-12T16:47:43.372Z,11.40
2024-03-12T16:50:12.431Z,11.37
2024-03-12T16:52:41.622Z,11.33
2024-03-12T16:55:10.937Z,11.30
2024-03-12T16:57:39.874Z,11.27
2024-03-12T17:00:15.494Z,11.25
2024-03-12T17:02:45.430Z,11.21
2024-03-12T17:05:23.783Z,11.17
2024-03-12T17:07:56.980Z,11.14
2024-03-12T17:10:26.375Z,11.10
2024-03-12T17:12:55.252Z,11.08
2024-03-12T17:15:24.643Z,11.06
2024-03-12T17:17:53.537Z,11.02
2024-03-12T17:20:22.250Z,10.99
2024-03-12T17:22:52.018Z,10.96
2024-03-12T17:25:20.942Z,10.95
2024-03-12T17:27:52.979Z,10.93
2024-03-12T17:30:25.615Z,10.91
2024-03-12T17:32:56.420Z,10.90
2024-03-12T17:35:25.371Z,10.90
2024-03-12T17:37:59.640Z,10.88
2024-03-12T17:40:29.274Z,10.87
2024-03-12T17:43:01.146Z,10.87
2024-03-12T17:45:31.520Z,10.88
2024-03-12T17:48:02.418Z,10.89
2024-03-12T17:50:32.096Z,10.90
2024-03-12T17:53:07.670Z,10.92
2024-03-12T17:55:37.472Z,10.93
2024-03-12T17:58:10.257Z,10.95
2024-03-12T18:00:39.291Z,10.95
2024-03-12T18:03:09.295Z,10.95
2024-03-12T18:05:38.264Z,10.96
2024-03-12T18:08:11.465Z,10.96
2024-03-12T18:10:41.145Z,10.95
2024-03-12T18:13:11.971Z,10.95
2024-03-12T18:15:41.396Z,10.96
2024-03-12T18:18:11.097Z,10.98
2024-03-12T18:20:42.143Z,11.00
2024-03-12T18:23:10.393Z,11.04
2024-03-12T18:25:38.714Z,11.08
2024-03-12T18:28:08.986Z,11.11
2024-03-12T18:30:37.752Z,11.13
2024-03-12T18:33:06.239Z,11.13
2024-03-12T18:35:34.597Z,11.13
2024-03-12T18:38:04.096Z,11.13
2024-03-12T18:40:33.185Z,11.14
2024-03-12T18:43:04.754Z,11.13
2024-03-12T18:45:33.424Z,11.11
2024-03-12T18:48:02.340Z,11.09
2024-03-12T18:50:33.172Z,11.06
2024-03-12T18:53:01.945Z,11.02
2024-03-12T18:55:31.580Z,10.99
2024-03-12T18:58:00.981Z,10.97
2024-03-12T19:00:30.126Z,10.94
2024-03-12T19:03:12.985Z,10.90
2024-03-12T19:05:41.782Z,10.86
2024-03-12T19:08:10.717Z,10.83
2024-03-12T19:10:39.552Z,10.80
2024-03-12T19:13:11.142Z,10.77
2024-03-12T19:15:44.201Z,10.74
2024-03-12T19:18:15.413Z,10.72
2024-03-12T19:20:44.082Z,10.69
2024-03-12T19:23:12.867Z,10.68
2024-03-12T19:25:41.519Z,10.66
2024-03-12T19:28:10.162Z,10.65
2024-03-12T19:30:39.828Z,10.64
2024-03-12T19:33:09.847Z,10.62
2024-03-12T19:35:39.976Z,10.61
2024-03-12T19:38:10.410Z,10.60
2024-03-12T19:40:39.238Z,10.60
2024-03-12T19:43:08.575Z,10.60
2024-03-12T19:45:37.412Z,10.61
2024-03-12T19:48:07.306Z,10.60
2024-03-12T19:50:36.892Z,10.61
2024-03-12T19:53:05.074Z,10.62
2024-03-12T19:55:35.240Z,10.63
2024-03-12T19:58:05.588Z,10.66
2024-03-12T20:00:35.155Z,10.67
2024-03-12T20:03:07.779Z,10.67
2024-03-12T20:05:37.371Z,10.70
2024-03-12T20:08:10.420Z,10.73
2024-03-12T20:10:39.006Z,10.75
2024-03-12T20:13:07.733Z,10.76
2024-03-12T20:15:38.317Z,10.79
2024-03-12T20:18:07.616Z,10.80
2024-03-12T20:20:36.840Z,10.82
2024-03-12T20:23:07.268Z,10.82
2024-03-12T20:25:35.889Z,10.80
2024-03-12T20:28:10.836Z,10.76
2024-03-12T20:30:40.758Z,10.72
2024-03-12T20:33:12.059Z,10.66
2024-03-12T20:35:40.516Z,10.61
2024-03-12T20:38:10.277Z,10.58
2024-03-12T20:40:38.698Z,10.56
2024-03-12T20:43:07.496Z,10.51
2024-03-12T20:45:39.444Z,10.46
2024-03-12T20:48:11.772Z,10.40
2024-03-12T20:50:41.312Z,10.30
2024-03-12T20:53:11.567Z,10.12
2024-03-12T20:55:40.637Z,10.00
2024-03-12T20:58:09.012Z,9.85
2024-03-12T21:00:39.196Z,9.76
2024-03-12T21:03:11.188Z,9.69
2024-03-12T21:05:40.745Z,9.61
2024-03-12T21:08:09.338Z,9.58
2024-03-12T21:10:39.424Z,9.59
2024-03-12T21:13:07.949Z,9.61
2024-03-12T21:15:36.354Z,9.63
2024-03-12T21:18:07.429Z,9.65
2024-03-12T21:20:36.361Z,9.66
2024-03-12T21:23:05.270Z,9.69
2024-03-12T21:25:34.812Z,9.70
2024-03-12T21:28:04.266Z,9.70
2024-03-12T21:30:32.962Z,9.71
2024-03-12T21:33:01.260Z,9.71
2024-03-12T21:35:30.312Z,9.69
2024-03-12T21:37:58.809Z,9.68
2024-03-12T21:40:28.213Z,9.66
2024-03-12T21:42:56.818Z,9.61
2024-03-12T21:45:26.082Z,9.57
2024-03-12T21:47:54.308Z,9.53
2024-03-12T21:50:23.065Z,9.49
2024-03-12T21:52:52.098Z,9.47
2024-03-12T21:55:21.080Z,9.43
2024-03-12T21:57:50.143Z,9.38
2024-03-12T22:00:20.606Z,9.36
2024-03-12T22:02:50.074Z,9.33
2024-03-12T22:05:21.350Z,9.33
2024-03-12T22:07:50.864Z,9.32
2024-03-12T22:10:19.964Z,9.30
2024-03-12T22:12:48.575Z,9.30
2024-03-12T22:15:17.171Z,9.28
2024-03-12T22:17:46.866Z,9.26
2024-03-12T22:20:17.909Z,9.23
2024-03-12T22:22:46.831Z,9.22
2024-03-12T22:25:15.593Z,9.21
2024-03-12T22:27:45.412Z,9.22
2024-03-12T22:30:13.687Z,9.20
2024-03-12T22:32:43.508Z,9.19
2024-03-12T22:35:12.341Z,9.17
2024-03-12T22:37:43.532Z,9.15
2024-03-12T22:40:13.836Z,9.15
2024-03-12T22:42:43.251Z,9.15
2024-03-12T22:45:12.975Z,9.15
2024-03-12T22:47:42.231Z,9.15
2024-03-12T22:50:11.034Z,9.15
2024-03-12T22:52:41.066Z,9.17
2024-03-12T22:55:09.917Z,9.19
2024-03-12T22:57:40.054Z,9.18
2024-03-12T23:00:32.466Z,9.19
2024-03-12T23:03:02.758Z,9.22
2024-03-12T23:05:35.148Z,9.26
2024-03-12T23:08:09.526Z,9.28
2024-03-12T23:10:41.946Z,9.31
2024-03-12T23:13:17.717Z,9.35
2024-03-12T23:15:46.744Z,9.40
2024-03-12T23:18:15.169Z,9.42
2024-03-12T23:20:46.166Z,9.41
2024-03-12T23:23:14.927Z,9.41
2024-03-12T23:25:43.776Z,9.39
2024-03-12T23:28:12.402Z,9.34
2024-03-12T23:30:41.430Z,9.30
2024-03-12T23:33:10.138Z,9.27
2024-03-12T23:35:38.645Z,9.23
2024-03-12T23:38:07.069Z,9.21
2024-03-12T23:40:35.560Z,9.20
2024-03-12T23:43:05.166Z,9.20
2024-03-12T23:45:33.775Z,9.17
2024-03-12T23:48:04.268Z,9.15
2024-03-12T23:50:32.741Z,9.13
2024-03-12T23:53:03.109Z,9.13
2024-03-12T23:55:31.640Z,9.12
2024-03-12T23:58:01.036Z,9.09
